Airfield :







YOU CAN JOIN US ON...

 
LOGIN :

Register | Disclaimer

   EN    FR    IT 

 









Legend :    VFR   Marginal VFR   IFR   Intensive IFR   Very Intensive IFR
Visi :
Ceiling :
>= 8 km
>= 3000ft
5 to 8 km
1000 to 3000 ft
1500m to 5 km
500 to 1000 ft
800 to 1500m
200 to 500 ft
< 800m
< 200 ft
Symbols :   Thunderstorms  Fog  Heavy snow  Heavy precipitations  Wind > 20 kt






- Airport Elevation : 270 ft
- IATA code : YMX


CYMX - Montreal International Mirabel

CURRENT METAR :
  • 191600Z 31011G18KT 260V340 45SM SCT041 M05/M15 A3016 RMK CU3 SLP220

EXPIRED METARs :
  • 191500Z 31011G21KT 260V350 15SM VCSH DRSN SCT035 SCT080 M04/M14 A3011 RMK CU3AC1 AC TR SH DIST NE-SE SLP202
  • 191400Z 28006G23KT 220V310 15SM DRSN FEW025 BKN065 BKN075 M04/M10 A3005 RMK SC2SC3AC2 SLP181
  • 191347Z 26009G19KT 230V310 10SM SCT024 BKN066 M04/M10 A3004 RMK SC3AC4 SLP178

TAF TAF CYMX
Valid from the 19 at 12:00 until the 20 at 12:00 UTC


191142Z 1912/2012 27010G20KT 6SM -SHSN OVC025
TEMPO 1912/1914 3/4SM -SHSN VV006
PROB30 1912/1913 VRB20G35KT 1/4SM +SHSN BLSN VV002
FM191400 30015G25KT P6SM BKN030
TEMPO 1914/1915 2SM -SHSN OVC020
FM191700 28012G22KT P6SM FEW040
BECMG 1921/1923 28008KT
FM200500 31005KT P6SM BKN050 RMK NXT FCST BY 191800Z



MET'MAP, your aeronautical weather chart ! - Copyright ORBIFLY December 2007 - Disclaimer

ORBIFLY MET'MAP TEAM :

Programming & Development : Alexandra Zaïnal
Concept & original design : Baudouin d'Aumeries
Assistance for programming : Marc-Olivier Méhu
Technical & hardware support : Manuel Goepfert

Contact : metmap@orbifly.com




SOURCES & CREDITS :

   NOAA